Current Observation

FTSO31 AGGG 281130
TAF AGGH 281130Z 2812/2912 VRB03KT 9999 FEW015 SCT029 
FM282200 09015KT 9999 SCT018 SCT030
T 24 23 22 26 Q 1011 1009 1008 1010=
   
TAF AGGM 281130Z 2812/2912 09006KT 9999 –SHRA FEW016 SCT027 BKN090 
FM282200 09015KT 9999 SCT018 SCT030
INTER 2812/2821 3000 TSSH SCT015 FEW016CB OVC026
Q 1012 1010 1009 1011= 

TAF AGGN 281130Z 2812/2912 11008KT 9999 –SHRA FEW016 SCT027 OVC090 
FM282200 14018KT 9999 SCT018 SCT030
INTER 2812/2821 3000 TSSH SCT015 FEW016CB OVC026
Q 1012 1010 1009 1011=

Last modified on Wednesday, 28 June 2017 22:54

Weather Outlook

Support and Docs

Modern Design
Go to top